sensor_id;sensor_type;location;lat;lon;timestamp;P1;durP1;ratioP1;P2;durP2;ratioP2
41629;SDS011;27322;49.488;8.480;2024-01-30T00:01:28;15.50;;;7.97;;
41629;SDS011;27322;49.488;8.480;2024-01-30T00:03:53;15.18;;;8.05;;
41629;SDS011;27322;49.488;8.480;2024-01-30T00:06:19;14.00;;;7.43;;
41629;SDS011;27322;49.488;8.480;2024-01-30T00:08:46;15.50;;;7.57;;
41629;SDS011;27322;49.488;8.480;2024-01-30T00:11:14;19.52;;;8.93;;
41629;SDS011;27322;49.488;8.480;2024-01-30T00:13:40;15.15;;;7.15;;
41629;SDS011;27322;49.488;8.480;2024-01-30T00:16:06;17.65;;;8.27;;
41629;SDS011;27322;49.488;8.480;2024-01-30T00:18:31;14.35;;;7.57;;
41629;SDS011;27322;49.488;8.480;2024-01-30T00:20:57;15.88;;;7.75;;
41629;SDS011;27322;49.488;8.480;2024-01-30T00:23:22;16.20;;;7.85;;
41629;SDS011;27322;49.488;8.480;2024-01-30T00:25:48;14.73;;;7.55;;
41629;SDS011;27322;49.488;8.480;2024-01-30T00:28:14;17.67;;;8.75;;
41629;SDS011;27322;49.488;8.480;2024-01-30T00:30:40;16.63;;;7.70;;
41629;SDS011;27322;49.488;8.480;2024-01-30T00:33:06;14.05;;;7.80;;
41629;SDS011;27322;49.488;8.480;2024-01-30T00:35:32;14.48;;;7.75;;
41629;SDS011;27322;49.488;8.480;2024-01-30T00:37:58;14.80;;;7.35;;
41629;SDS011;27322;49.488;8.480;2024-01-30T00:40:24;18.67;;;7.95;;
41629;SDS011;27322;49.488;8.480;2024-01-30T00:42:49;16.85;;;7.85;;
41629;SDS011;27322;49.488;8.480;2024-01-30T00:45:15;14.43;;;7.90;;
41629;SDS011;27322;49.488;8.480;2024-01-30T00:47:41;15.60;;;7.68;;
41629;SDS011;27322;49.488;8.480;2024-01-30T00:50:07;13.48;;;6.97;;
41629;SDS011;27322;49.488;8.480;2024-01-30T00:52:33;15.05;;;7.63;;
41629;SDS011;27322;49.488;8.480;2024-01-30T00:54:59;16.23;;;8.93;;
41629;SDS011;27322;49.488;8.480;2024-01-30T00:57:25;14.75;;;7.28;;
41629;SDS011;27322;49.488;8.480;2024-01-30T00:59:50;15.32;;;7.50;;
41629;SDS011;27322;49.488;8.480;2024-01-30T01:02:16;15.95;;;7.95;;
41629;SDS011;27322;49.488;8.480;2024-01-30T01:04:44;17.92;;;7.95;;
41629;SDS011;27322;49.488;8.480;2024-01-30T01:07:10;14.82;;;7.70;;
41629;SDS011;27322;49.488;8.480;2024-01-30T01:09:36;18.38;;;8.55;;
41629;SDS011;27322;49.488;8.480;2024-01-30T01:12:02;18.90;;;8.68;;
41629;SDS011;27322;49.488;8.480;2024-01-30T01:14:28;14.85;;;7.78;;
41629;SDS011;27322;49.488;8.480;2024-01-30T01:16:54;15.68;;;7.40;;
41629;SDS011;27322;49.488;8.480;2024-01-30T01:19:19;15.07;;;8.27;;
41629;SDS011;27322;49.488;8.480;2024-01-30T01:21:45;14.32;;;7.40;;
41629;SDS011;27322;49.488;8.480;2024-01-30T01:24:11;12.70;;;7.28;;
41629;SDS011;27322;49.488;8.480;2024-01-30T01:26:36;15.82;;;7.70;;
41629;SDS011;27322;49.488;8.480;2024-01-30T01:29:02;17.10;;;7.70;;
41629;SDS011;27322;49.488;8.480;2024-01-30T01:31:34;14.95;;;7.60;;
41629;SDS011;27322;49.488;8.480;2024-01-30T01:34:08;13.73;;;7.00;;
41629;SDS011;27322;49.488;8.480;2024-01-30T01:36:35;14.65;;;7.40;;
41629;SDS011;27322;49.488;8.480;2024-01-30T01:39:00;14.52;;;7.65;;
41629;SDS011;27322;49.488;8.480;2024-01-30T01:41:29;13.88;;;7.75;;
41629;SDS011;27322;49.488;8.480;2024-01-30T01:43:56;15.73;;;7.90;;
41629;SDS011;27322;49.488;8.480;2024-01-30T01:46:21;16.52;;;7.47;;
41629;SDS011;27322;49.488;8.480;2024-01-30T01:48:47;12.77;;;7.03;;
41629;SDS011;27322;49.488;8.480;2024-01-30T01:51:13;16.00;;;7.93;;
41629;SDS011;27322;49.488;8.480;2024-01-30T01:53:40;15.10;;;7.15;;
41629;SDS011;27322;49.488;8.480;2024-01-30T01:56:06;16.67;;;7.78;;
41629;SDS011;27322;49.488;8.480;2024-01-30T01:58:32;14.82;;;6.82;;
41629;SDS011;27322;49.488;8.480;2024-01-30T02:00:57;13.77;;;7.45;;
41629;SDS011;27322;49.488;8.480;2024-01-30T02:03:24;13.13;;;6.38;;
41629;SDS011;27322;49.488;8.480;2024-01-30T02:05:53;12.93;;;6.80;;
41629;SDS011;27322;49.488;8.480;2024-01-30T02:08:19;12.57;;;6.60;;
41629;SDS011;27322;49.488;8.480;2024-01-30T02:10:45;12.45;;;6.65;;
41629;SDS011;27322;49.488;8.480;2024-01-30T02:13:10;12.10;;;6.85;;
41629;SDS011;27322;49.488;8.480;2024-01-30T02:15:36;12.15;;;6.85;;
41629;SDS011;27322;49.488;8.480;2024-01-30T02:18:02;12.88;;;7.18;;
41629;SDS011;27322;49.488;8.480;2024-01-30T02:20:28;13.38;;;7.28;;
41629;SDS011;27322;49.488;8.480;2024-01-30T02:22:56;14.40;;;7.20;;
41629;SDS011;27322;49.488;8.480;2024-01-30T02:25:39;14.13;;;6.95;;
41629;SDS011;27322;49.488;8.480;2024-01-30T02:28:11;12.32;;;7.00;;
41629;SDS011;27322;49.488;8.480;2024-01-30T02:30:38;11.90;;;6.85;;
41629;SDS011;27322;49.488;8.480;2024-01-30T02:33:04;13.02;;;6.90;;
41629;SDS011;27322;49.488;8.480;2024-01-30T02:35:30;16.38;;;7.25;;
41629;SDS011;27322;49.488;8.480;2024-01-30T02:37:55;12.48;;;6.72;;
41629;SDS011;27322;49.488;8.480;2024-01-30T02:40:21;11.93;;;6.70;;
41629;SDS011;27322;49.488;8.480;2024-01-30T02:42:47;11.90;;;6.30;;
41629;SDS011;27322;49.488;8.480;2024-01-30T02:45:12;14.77;;;6.72;;
41629;SDS011;27322;49.488;8.480;2024-01-30T02:47:38;11.65;;;5.85;;
41629;SDS011;27322;49.488;8.480;2024-01-30T02:50:05;12.73;;;7.20;;
41629;SDS011;27322;49.488;8.480;2024-01-30T02:52:31;12.48;;;6.40;;
41629;SDS011;27322;49.488;8.480;2024-01-30T02:54:57;13.13;;;6.55;;
41629;SDS011;27322;49.488;8.480;2024-01-30T02:57:22;13.82;;;6.30;;
41629;SDS011;27322;49.488;8.480;2024-01-30T02:59:48;10.88;;;5.85;;
41629;SDS011;27322;49.488;8.480;2024-01-30T03:02:13;11.77;;;5.95;;
41629;SDS011;27322;49.488;8.480;2024-01-30T03:04:42;13.13;;;6.53;;
41629;SDS011;27322;49.488;8.480;2024-01-30T03:07:08;11.07;;;5.68;;
41629;SDS011;27322;49.488;8.480;2024-01-30T03:09:34;12.15;;;5.78;;
41629;SDS011;27322;49.488;8.480;2024-01-30T03:11:59;10.65;;;6.18;;
41629;SDS011;27322;49.488;8.480;2024-01-30T03:14:25;11.88;;;6.07;;
41629;SDS011;27322;49.488;8.480;2024-01-30T03:16:51;13.85;;;6.28;;
41629;SDS011;27322;49.488;8.480;2024-01-30T03:19:17;12.95;;;6.25;;
41629;SDS011;27322;49.488;8.480;2024-01-30T03:21:43;11.13;;;5.85;;
41629;SDS011;27322;49.488;8.480;2024-01-30T03:24:09;12.65;;;6.10;;
41629;SDS011;27322;49.488;8.480;2024-01-30T03:26:35;11.73;;;5.65;;
41629;SDS011;27322;49.488;8.480;2024-01-30T03:29:00;12.15;;;5.85;;
41629;SDS011;27322;49.488;8.480;2024-01-30T03:31:26;11.65;;;5.80;;
41629;SDS011;27322;49.488;8.480;2024-01-30T03:33:52;11.85;;;5.53;;
41629;SDS011;27322;49.488;8.480;2024-01-30T03:36:17;10.95;;;5.80;;
41629;SDS011;27322;49.488;8.480;2024-01-30T03:38:43;10.05;;;5.40;;
41629;SDS011;27322;49.488;8.480;2024-01-30T03:41:08;9.15;;;5.18;;
41629;SDS011;27322;49.488;8.480;2024-01-30T03:43:35;12.60;;;5.45;;
41629;SDS011;27322;49.488;8.480;2024-01-30T03:46:01;11.32;;;5.70;;
41629;SDS011;27322;49.488;8.480;2024-01-30T03:48:27;9.55;;;5.60;;
41629;SDS011;27322;49.488;8.480;2024-01-30T03:50:53;11.40;;;5.68;;
41629;SDS011;27322;49.488;8.480;2024-01-30T03:53:19;10.45;;;5.00;;
41629;SDS011;27322;49.488;8.480;2024-01-30T03:55:44;9.98;;;5.35;;
41629;SDS011;27322;49.488;8.480;2024-01-30T03:58:10;10.02;;;5.53;;
41629;SDS011;27322;49.488;8.480;2024-01-30T04:00:36;11.43;;;5.15;;
41629;SDS011;27322;49.488;8.480;2024-01-30T04:03:01;11.27;;;5.68;;
41629;SDS011;27322;49.488;8.480;2024-01-30T04:05:27;13.45;;;5.50;;
41629;SDS011;27322;49.488;8.480;2024-01-30T04:07:53;11.43;;;5.00;;
41629;SDS011;27322;49.488;8.480;2024-01-30T04:10:18;10.65;;;5.40;;
41629;SDS011;27322;49.488;8.480;2024-01-30T04:12:44;9.57;;;5.05;;
41629;SDS011;27322;49.488;8.480;2024-01-30T04:15:10;9.75;;;5.40;;
41629;SDS011;27322;49.488;8.480;2024-01-30T04:17:35;10.32;;;5.38;;
41629;SDS011;27322;49.488;8.480;2024-01-30T04:20:01;10.65;;;5.97;;
41629;SDS011;27322;49.488;8.480;2024-01-30T04:22:26;11.52;;;5.60;;
41629;SDS011;27322;49.488;8.480;2024-01-30T04:24:52;12.82;;;6.10;;
41629;SDS011;27322;49.488;8.480;2024-01-30T04:27:18;11.13;;;5.93;;
41629;SDS011;27322;49.488;8.480;2024-01-30T04:29:43;14.57;;;6.05;;
41629;SDS011;27322;49.488;8.480;2024-01-30T04:32:09;12.35;;;6.43;;
41629;SDS011;27322;49.488;8.480;2024-01-30T04:34:36;14.70;;;6.45;;
41629;SDS011;27322;49.488;8.480;2024-01-30T04:37:02;13.77;;;6.90;;
41629;SDS011;27322;49.488;8.480;2024-01-30T04:39:28;15.23;;;6.63;;
41629;SDS011;27322;49.488;8.480;2024-01-30T04:41:53;12.63;;;7.07;;
41629;SDS011;27322;49.488;8.480;2024-01-30T04:44:19;11.57;;;6.35;;
41629;SDS011;27322;49.488;8.480;2024-01-30T04:46:44;14.43;;;6.70;;
41629;SDS011;27322;49.488;8.480;2024-01-30T04:49:10;13.57;;;6.43;;
41629;SDS011;27322;49.488;8.480;2024-01-30T04:51:36;13.65;;;6.40;;
41629;SDS011;27322;49.488;8.480;2024-01-30T04:54:01;13.23;;;6.85;;
41629;SDS011;27322;49.488;8.480;2024-01-30T04:56:27;11.75;;;6.55;;
41629;SDS011;27322;49.488;8.480;2024-01-30T04:58:53;15.65;;;6.63;;
41629;SDS011;27322;49.488;8.480;2024-01-30T05:01:18;12.35;;;6.18;;
41629;SDS011;27322;49.488;8.480;2024-01-30T05:03:44;12.77;;;6.30;;
41629;SDS011;27322;49.488;8.480;2024-01-30T05:06:09;11.45;;;5.90;;
41629;SDS011;27322;49.488;8.480;2024-01-30T05:08:35;10.25;;;5.68;;
41629;SDS011;27322;49.488;8.480;2024-01-30T05:11:06;13.82;;;6.97;;
41629;SDS011;27322;49.488;8.480;2024-01-30T05:13:32;11.85;;;6.38;;
41629;SDS011;27322;49.488;8.480;2024-01-30T05:15:58;15.27;;;6.80;;
41629;SDS011;27322;49.488;8.480;2024-01-30T05:18:23;15.38;;;7.53;;
41629;SDS011;27322;49.488;8.480;2024-01-30T05:20:50;12.77;;;6.85;;
41629;SDS011;27322;49.488;8.480;2024-01-30T05:23:16;16.95;;;7.75;;
41629;SDS011;27322;49.488;8.480;2024-01-30T05:25:41;14.98;;;7.53;;
41629;SDS011;27322;49.488;8.480;2024-01-30T05:28:07;13.68;;;6.63;;
41629;SDS011;27322;49.488;8.480;2024-01-30T05:30:32;14.35;;;7.35;;
41629;SDS011;27322;49.488;8.480;2024-01-30T05:32:58;13.68;;;7.07;;
41629;SDS011;27322;49.488;8.480;2024-01-30T05:35:24;16.13;;;7.65;;
41629;SDS011;27322;49.488;8.480;2024-01-30T05:37:49;13.77;;;7.40;;
41629;SDS011;27322;49.488;8.480;2024-01-30T05:40:15;15.45;;;7.32;;
41629;SDS011;27322;49.488;8.480;2024-01-30T05:42:41;15.07;;;6.85;;
41629;SDS011;27322;49.488;8.480;2024-01-30T05:45:07;15.07;;;7.38;;
41629;SDS011;27322;49.488;8.480;2024-01-30T05:47:33;13.73;;;6.78;;
41629;SDS011;27322;49.488;8.480;2024-01-30T05:49:59;12.50;;;6.82;;
41629;SDS011;27322;49.488;8.480;2024-01-30T05:52:25;17.50;;;7.47;;
41629;SDS011;27322;49.488;8.480;2024-01-30T05:54:50;13.70;;;7.72;;
41629;SDS011;27322;49.488;8.480;2024-01-30T05:57:16;13.57;;;6.75;;
41629;SDS011;27322;49.488;8.480;2024-01-30T05:59:42;13.30;;;7.43;;
41629;SDS011;27322;49.488;8.480;2024-01-30T06:02:12;13.15;;;7.18;;
41629;SDS011;27322;49.488;8.480;2024-01-30T06:04:38;14.55;;;7.03;;
41629;SDS011;27322;49.488;8.480;2024-01-30T06:07:04;14.63;;;7.05;;
41629;SDS011;27322;49.488;8.480;2024-01-30T06:09:31;14.68;;;7.50;;
41629;SDS011;27322;49.488;8.480;2024-01-30T06:11:57;12.27;;;7.15;;
41629;SDS011;27322;49.488;8.480;2024-01-30T06:14:22;12.93;;;6.80;;
41629;SDS011;27322;49.488;8.480;2024-01-30T06:16:48;12.25;;;6.82;;
41629;SDS011;27322;49.488;8.480;2024-01-30T06:19:14;13.00;;;6.82;;
41629;SDS011;27322;49.488;8.480;2024-01-30T06:21:39;13.85;;;6.55;;
41629;SDS011;27322;49.488;8.480;2024-01-30T06:24:05;13.98;;;6.53;;
41629;SDS011;27322;49.488;8.480;2024-01-30T06:26:30;13.30;;;7.30;;
41629;SDS011;27322;49.488;8.480;2024-01-30T06:28:56;13.82;;;6.70;;
41629;SDS011;27322;49.488;8.480;2024-01-30T06:31:22;15.95;;;7.28;;
41629;SDS011;27322;49.488;8.480;2024-01-30T06:33:47;14.65;;;7.18;;
41629;SDS011;27322;49.488;8.480;2024-01-30T06:36:13;13.20;;;6.90;;
41629;SDS011;27322;49.488;8.480;2024-01-30T06:38:39;14.32;;;7.40;;
41629;SDS011;27322;49.488;8.480;2024-01-30T06:41:05;13.57;;;6.72;;
41629;SDS011;27322;49.488;8.480;2024-01-30T06:43:31;12.98;;;7.03;;
41629;SDS011;27322;49.488;8.480;2024-01-30T06:45:57;12.35;;;6.32;;
41629;SDS011;27322;49.488;8.480;2024-01-30T06:48:23;15.38;;;7.13;;
41629;SDS011;27322;49.488;8.480;2024-01-30T06:50:48;15.30;;;6.95;;
41629;SDS011;27322;49.488;8.480;2024-01-30T06:53:14;12.65;;;6.70;;
41629;SDS011;27322;49.488;8.480;2024-01-30T06:55:40;13.90;;;6.97;;
41629;SDS011;27322;49.488;8.480;2024-01-30T06:58:05;16.20;;;6.72;;
41629;SDS011;27322;49.488;8.480;2024-01-30T07:00:31;12.73;;;6.93;;
41629;SDS011;27322;49.488;8.480;2024-01-30T07:02:57;15.98;;;7.40;;
41629;SDS011;27322;49.488;8.480;2024-01-30T07:05:22;14.98;;;7.43;;
41629;SDS011;27322;49.488;8.480;2024-01-30T07:07:48;15.15;;;7.38;;
41629;SDS011;27322;49.488;8.480;2024-01-30T07:10:14;12.48;;;6.65;;
41629;SDS011;27322;49.488;8.480;2024-01-30T07:12:39;13.45;;;7.47;;
41629;SDS011;27322;49.488;8.480;2024-01-30T07:15:05;14.63;;;7.10;;
41629;SDS011;27322;49.488;8.480;2024-01-30T07:17:34;14.00;;;6.82;;
41629;SDS011;27322;49.488;8.480;2024-01-30T07:20:00;14.95;;;7.03;;
41629;SDS011;27322;49.488;8.480;2024-01-30T07:22:26;12.88;;;6.78;;
41629;SDS011;27322;49.488;8.480;2024-01-30T07:24:51;12.82;;;6.80;;
41629;SDS011;27322;49.488;8.480;2024-01-30T07:27:17;14.00;;;7.57;;
41629;SDS011;27322;49.488;8.480;2024-01-30T07:29:43;15.50;;;7.10;;
41629;SDS011;27322;49.488;8.480;2024-01-30T07:32:09;15.30;;;7.28;;
41629;SDS011;27322;49.488;8.480;2024-01-30T07:34:34;13.50;;;6.30;;
41629;SDS011;27322;49.488;8.480;2024-01-30T07:37:01;13.07;;;6.80;;
41629;SDS011;27322;49.488;8.480;2024-01-30T07:39:27;13.18;;;7.00;;
41629;SDS011;27322;49.488;8.480;2024-01-30T07:41:53;13.25;;;6.85;;
41629;SDS011;27322;49.488;8.480;2024-01-30T07:44:18;14.00;;;7.20;;
41629;SDS011;27322;49.488;8.480;2024-01-30T07:46:44;16.13;;;7.82;;
41629;SDS011;27322;49.488;8.480;2024-01-30T07:49:09;13.85;;;7.82;;
41629;SDS011;27322;49.488;8.480;2024-01-30T07:51:35;13.52;;;7.13;;
41629;SDS011;27322;49.488;8.480;2024-01-30T07:54:00;13.13;;;7.38;;
41629;SDS011;27322;49.488;8.480;2024-01-30T07:56:26;12.63;;;7.05;;
41629;SDS011;27322;49.488;8.480;2024-01-30T07:58:52;14.13;;;7.00;;
41629;SDS011;27322;49.488;8.480;2024-01-30T08:01:18;14.85;;;7.72;;
41629;SDS011;27322;49.488;8.480;2024-01-30T08:03:44;16.00;;;7.25;;
41629;SDS011;27322;49.488;8.480;2024-01-30T08:06:09;15.70;;;7.35;;
41629;SDS011;27322;49.488;8.480;2024-01-30T08:08:35;15.27;;;7.20;;
41629;SDS011;27322;49.488;8.480;2024-01-30T08:11:02;14.57;;;7.90;;
41629;SDS011;27322;49.488;8.480;2024-01-30T08:13:28;14.73;;;7.60;;
41629;SDS011;27322;49.488;8.480;2024-01-30T08:15:54;15.20;;;7.72;;
41629;SDS011;27322;49.488;8.480;2024-01-30T08:18:19;14.82;;;7.47;;
41629;SDS011;27322;49.488;8.480;2024-01-30T08:20:45;15.82;;;7.55;;
41629;SDS011;27322;49.488;8.480;2024-01-30T08:23:10;14.93;;;7.68;;
41629;SDS011;27322;49.488;8.480;2024-01-30T08:25:36;15.40;;;8.13;;
41629;SDS011;27322;49.488;8.480;2024-01-30T08:28:02;13.18;;;7.15;;
41629;SDS011;27322;49.488;8.480;2024-01-30T08:30:29;13.48;;;7.13;;
41629;SDS011;27322;49.488;8.480;2024-01-30T08:32:54;15.15;;;7.30;;
41629;SDS011;27322;49.488;8.480;2024-01-30T08:35:20;14.85;;;7.07;;
41629;SDS011;27322;49.488;8.480;2024-01-30T08:37:45;12.73;;;7.13;;
41629;SDS011;27322;49.488;8.480;2024-01-30T08:40:11;15.43;;;8.02;;
41629;SDS011;27322;49.488;8.480;2024-01-30T08:42:36;13.10;;;7.45;;
41629;SDS011;27322;49.488;8.480;2024-01-30T08:45:02;17.13;;;8.32;;
41629;SDS011;27322;49.488;8.480;2024-01-30T08:47:29;15.75;;;8.05;;
41629;SDS011;27322;49.488;8.480;2024-01-30T08:49:55;14.40;;;7.80;;
41629;SDS011;27322;49.488;8.480;2024-01-30T08:52:21;18.77;;;8.15;;
41629;SDS011;27322;49.488;8.480;2024-01-30T08:54:46;14.57;;;8.15;;
41629;SDS011;27322;49.488;8.480;2024-01-30T08:57:12;15.88;;;7.85;;
41629;SDS011;27322;49.488;8.480;2024-01-30T08:59:37;15.65;;;7.80;;
41629;SDS011;27322;49.488;8.480;2024-01-30T09:02:03;13.52;;;7.20;;
41629;SDS011;27322;49.488;8.480;2024-01-30T09:04:30;14.48;;;7.78;;
41629;SDS011;27322;49.488;8.480;2024-01-30T09:06:55;17.25;;;8.18;;
41629;SDS011;27322;49.488;8.480;2024-01-30T09:09:21;15.18;;;7.90;;
41629;SDS011;27322;49.488;8.480;2024-01-30T09:11:47;13.93;;;7.28;;
41629;SDS011;27322;49.488;8.480;2024-01-30T09:14:13;17.70;;;7.57;;
41629;SDS011;27322;49.488;8.480;2024-01-30T09:16:38;16.02;;;8.15;;
41629;SDS011;27322;49.488;8.480;2024-01-30T09:19:04;13.52;;;7.50;;
41629;SDS011;27322;49.488;8.480;2024-01-30T09:21:30;15.68;;;8.40;;
41629;SDS011;27322;49.488;8.480;2024-01-30T09:24:01;15.30;;;7.60;;
41629;SDS011;27322;49.488;8.480;2024-01-30T09:26:28;20.17;;;7.68;;
41629;SDS011;27322;49.488;8.480;2024-01-30T09:28:54;16.60;;;8.18;;
41629;SDS011;27322;49.488;8.480;2024-01-30T09:31:20;17.50;;;7.85;;
41629;SDS011;27322;49.488;8.480;2024-01-30T09:33:45;16.70;;;8.35;;
41629;SDS011;27322;49.488;8.480;2024-01-30T09:36:13;14.00;;;7.72;;
41629;SDS011;27322;49.488;8.480;2024-01-30T09:38:40;13.77;;;7.20;;
41629;SDS011;27322;49.488;8.480;2024-01-30T09:41:07;17.23;;;8.20;;
41629;SDS011;27322;49.488;8.480;2024-01-30T09:43:36;13.15;;;7.60;;
41629;SDS011;27322;49.488;8.480;2024-01-30T09:46:04;14.35;;;7.63;;
41629;SDS011;27322;49.488;8.480;2024-01-30T09:48:32;15.15;;;7.90;;
41629;SDS011;27322;49.488;8.480;2024-01-30T09:50:59;16.05;;;8.00;;
41629;SDS011;27322;49.488;8.480;2024-01-30T09:53:25;16.48;;;8.07;;
41629;SDS011;27322;49.488;8.480;2024-01-30T09:55:51;13.38;;;7.63;;
41629;SDS011;27322;49.488;8.480;2024-01-30T09:58:17;16.30;;;7.88;;
41629;SDS011;27322;49.488;8.480;2024-01-30T10:00:42;15.35;;;7.78;;
41629;SDS011;27322;49.488;8.480;2024-01-30T10:03:08;13.52;;;7.40;;
41629;SDS011;27322;49.488;8.480;2024-01-30T10:05:35;15.57;;;8.00;;
41629;SDS011;27322;49.488;8.480;2024-01-30T10:08:07;16.77;;;8.77;;
41629;SDS011;27322;49.488;8.480;2024-01-30T10:10:33;13.00;;;7.22;;
41629;SDS011;27322;49.488;8.480;2024-01-30T10:13:00;18.48;;;8.63;;
41629;SDS011;27322;49.488;8.480;2024-01-30T10:15:26;16.02;;;7.78;;
41629;SDS011;27322;49.488;8.480;2024-01-30T10:17:53;13.02;;;7.40;;
41629;SDS011;27322;49.488;8.480;2024-01-30T10:20:18;12.02;;;7.50;;
41629;SDS011;27322;49.488;8.480;2024-01-30T10:22:44;15.68;;;8.25;;
41629;SDS011;27322;49.488;8.480;2024-01-30T10:25:11;15.13;;;7.50;;
41629;SDS011;27322;49.488;8.480;2024-01-30T10:27:36;14.60;;;7.72;;
41629;SDS011;27322;49.488;8.480;2024-01-30T10:30:04;15.20;;;7.72;;
41629;SDS011;27322;49.488;8.480;2024-01-30T10:32:31;16.25;;;7.63;;
41629;SDS011;27322;49.488;8.480;2024-01-30T10:35:07;14.25;;;7.38;;
41629;SDS011;27322;49.488;8.480;2024-01-30T10:37:33;14.23;;;7.35;;
41629;SDS011;27322;49.488;8.480;2024-01-30T10:40:02;13.30;;;7.30;;
41629;SDS011;27322;49.488;8.480;2024-01-30T10:42:31;16.67;;;8.23;;
41629;SDS011;27322;49.488;8.480;2024-01-30T10:45:13;14.95;;;7.85;;
41629;SDS011;27322;49.488;8.480;2024-01-30T10:47:49;15.07;;;7.70;;
41629;SDS011;27322;49.488;8.480;2024-01-30T10:50:17;16.30;;;8.00;;
41629;SDS011;27322;49.488;8.480;2024-01-30T10:52:43;13.75;;;6.97;;
41629;SDS011;27322;49.488;8.480;2024-01-30T10:55:10;13.63;;;7.45;;
41629;SDS011;27322;49.488;8.480;2024-01-30T10:57:36;14.40;;;7.80;;
41629;SDS011;27322;49.488;8.480;2024-01-30T11:00:04;13.23;;;7.18;;
41629;SDS011;27322;49.488;8.480;2024-01-30T11:02:35;13.57;;;7.22;;
41629;SDS011;27322;49.488;8.480;2024-01-30T11:05:05;13.93;;;7.10;;
41629;SDS011;27322;49.488;8.480;2024-01-30T11:07:31;12.73;;;7.50;;
41629;SDS011;27322;49.488;8.480;2024-01-30T11:12:22;13.60;;;7.32;;
41629;SDS011;27322;49.488;8.480;2024-01-30T11:14:50;14.00;;;6.82;;
41629;SDS011;27322;49.488;8.480;2024-01-30T11:17:28;15.68;;;6.90;;
41629;SDS011;27322;49.488;8.480;2024-01-30T11:19:53;12.95;;;6.75;;
41629;SDS011;27322;49.488;8.480;2024-01-30T11:22:20;12.52;;;6.78;;
41629;SDS011;27322;49.488;8.480;2024-01-30T11:24:46;14.00;;;6.75;;
41629;SDS011;27322;49.488;8.480;2024-01-30T11:27:12;16.83;;;7.32;;
41629;SDS011;27322;49.488;8.480;2024-01-30T11:29:40;13.38;;;6.97;;
41629;SDS011;27322;49.488;8.480;2024-01-30T11:32:05;14.10;;;7.38;;
41629;SDS011;27322;49.488;8.480;2024-01-30T11:34:32;12.18;;;6.85;;
41629;SDS011;27322;49.488;8.480;2024-01-30T11:37:03;12.82;;;6.95;;
41629;SDS011;27322;49.488;8.480;2024-01-30T11:39:31;13.63;;;6.82;;
41629;SDS011;27322;49.488;8.480;2024-01-30T11:41:57;12.88;;;7.10;;
41629;SDS011;27322;49.488;8.480;2024-01-30T11:44:24;12.15;;;6.65;;
41629;SDS011;27322;49.488;8.480;2024-01-30T11:46:51;13.18;;;6.60;;
41629;SDS011;27322;49.488;8.480;2024-01-30T11:49:18;16.60;;;8.43;;
41629;SDS011;27322;49.488;8.480;2024-01-30T11:51:47;12.63;;;6.45;;
41629;SDS011;27322;49.488;8.480;2024-01-30T11:54:15;17.13;;;7.47;;
41629;SDS011;27322;49.488;8.480;2024-01-30T11:56:41;11.13;;;6.72;;
41629;SDS011;27322;49.488;8.480;2024-01-30T11:59:08;13.00;;;7.10;;
41629;SDS011;27322;49.488;8.480;2024-01-30T12:01:33;14.32;;;6.88;;
41629;SDS011;27322;49.488;8.480;2024-01-30T12:04:00;12.55;;;6.47;;
41629;SDS011;27322;49.488;8.480;2024-01-30T12:06:26;12.23;;;6.35;;
41629;SDS011;27322;49.488;8.480;2024-01-30T12:09:01;12.00;;;6.57;;
41629;SDS011;27322;49.488;8.480;2024-01-30T12:11:44;12.55;;;6.70;;
41629;SDS011;27322;49.488;8.480;2024-01-30T12:14:11;12.38;;;6.38;;
41629;SDS011;27322;49.488;8.480;2024-01-30T12:16:37;11.48;;;6.30;;
41629;SDS011;27322;49.488;8.480;2024-01-30T12:19:03;12.65;;;7.03;;
41629;SDS011;27322;49.488;8.480;2024-01-30T12:21:29;12.55;;;6.55;;
41629;SDS011;27322;49.488;8.480;2024-01-30T12:23:55;12.45;;;6.60;;
41629;SDS011;27322;49.488;8.480;2024-01-30T12:26:21;11.93;;;6.63;;
41629;SDS011;27322;49.488;8.480;2024-01-30T12:28:48;12.15;;;6.82;;
41629;SDS011;27322;49.488;8.480;2024-01-30T12:31:15;12.43;;;6.35;;
41629;SDS011;27322;49.488;8.480;2024-01-30T12:33:40;11.80;;;6.82;;
41629;SDS011;27322;49.488;8.480;2024-01-30T12:36:06;11.10;;;6.38;;
41629;SDS011;27322;49.488;8.480;2024-01-30T12:38:32;15.30;;;7.07;;
41629;SDS011;27322;49.488;8.480;2024-01-30T12:40:58;12.60;;;6.72;;
41629;SDS011;27322;49.488;8.480;2024-01-30T12:43:24;12.80;;;6.28;;
41629;SDS011;27322;49.488;8.480;2024-01-30T12:45:50;13.48;;;6.20;;
41629;SDS011;27322;49.488;8.480;2024-01-30T12:48:18;11.10;;;6.20;;
41629;SDS011;27322;49.488;8.480;2024-01-30T12:50:43;13.27;;;6.53;;
41629;SDS011;27322;49.488;8.480;2024-01-30T12:53:09;11.40;;;5.78;;
41629;SDS011;27322;49.488;8.480;2024-01-30T12:55:35;16.17;;;6.35;;
41629;SDS011;27322;49.488;8.480;2024-01-30T12:58:00;12.23;;;6.32;;
41629;SDS011;27322;49.488;8.480;2024-01-30T13:00:26;11.15;;;5.47;;
41629;SDS011;27322;49.488;8.480;2024-01-30T13:02:52;12.00;;;6.18;;
41629;SDS011;27322;49.488;8.480;2024-01-30T13:05:17;11.75;;;5.90;;
41629;SDS011;27322;49.488;8.480;2024-01-30T13:07:43;11.00;;;6.20;;
41629;SDS011;27322;49.488;8.480;2024-01-30T13:10:09;11.88;;;6.05;;
41629;SDS011;27322;49.488;8.480;2024-01-30T13:12:35;11.95;;;5.93;;
41629;SDS011;27322;49.488;8.480;2024-01-30T13:15:02;11.15;;;6.10;;
41629;SDS011;27322;49.488;8.480;2024-01-30T13:17:29;11.65;;;5.57;;
41629;SDS011;27322;49.488;8.480;2024-01-30T13:19:55;13.07;;;5.78;;
41629;SDS011;27322;49.488;8.480;2024-01-30T13:22:20;11.68;;;5.57;;
41629;SDS011;27322;49.488;8.480;2024-01-30T13:24:49;12.15;;;5.75;;
41629;SDS011;27322;49.488;8.480;2024-01-30T13:27:15;10.63;;;5.40;;
41629;SDS011;27322;49.488;8.480;2024-01-30T13:29:40;12.30;;;5.55;;
41629;SDS011;27322;49.488;8.480;2024-01-30T13:32:06;10.50;;;5.43;;
41629;SDS011;27322;49.488;8.480;2024-01-30T13:34:32;11.50;;;5.30;;
41629;SDS011;27322;49.488;8.480;2024-01-30T13:36:57;11.02;;;5.45;;
41629;SDS011;27322;49.488;8.480;2024-01-30T13:39:23;12.60;;;5.60;;
41629;SDS011;27322;49.488;8.480;2024-01-30T13:41:49;14.38;;;5.70;;
41629;SDS011;27322;49.488;8.480;2024-01-30T13:44:15;10.13;;;5.88;;
41629;SDS011;27322;49.488;8.480;2024-01-30T13:46:42;12.00;;;6.07;;
41629;SDS011;27322;49.488;8.480;2024-01-30T13:49:08;10.57;;;5.53;;
41629;SDS011;27322;49.488;8.480;2024-01-30T13:51:33;11.48;;;5.85;;
41629;SDS011;27322;49.488;8.480;2024-01-30T13:53:59;10.05;;;5.43;;
41629;SDS011;27322;49.488;8.480;2024-01-30T13:56:24;14.32;;;6.15;;
41629;SDS011;27322;49.488;8.480;2024-01-30T13:58:51;9.90;;;5.57;;
41629;SDS011;27322;49.488;8.480;2024-01-30T14:01:17;10.23;;;5.28;;
41629;SDS011;27322;49.488;8.480;2024-01-30T14:03:43;10.85;;;5.10;;
41629;SDS011;27322;49.488;8.480;2024-01-30T14:06:08;11.10;;;5.40;;
41629;SDS011;27322;49.488;8.480;2024-01-30T14:08:34;10.48;;;4.80;;
41629;SDS011;27322;49.488;8.480;2024-01-30T14:11:00;10.23;;;4.97;;
41629;SDS011;27322;49.488;8.480;2024-01-30T14:13:25;9.48;;;5.22;;
41629;SDS011;27322;49.488;8.480;2024-01-30T14:15:51;10.68;;;5.03;;
41629;SDS011;27322;49.488;8.480;2024-01-30T14:18:17;11.18;;;5.10;;
41629;SDS011;27322;49.488;8.480;2024-01-30T14:20:43;10.27;;;5.20;;
41629;SDS011;27322;49.488;8.480;2024-01-30T14:23:09;9.50;;;5.30;;
41629;SDS011;27322;49.488;8.480;2024-01-30T14:25:34;10.23;;;5.53;;
41629;SDS011;27322;49.488;8.480;2024-01-30T14:28:00;11.57;;;5.72;;
41629;SDS011;27322;49.488;8.480;2024-01-30T14:30:25;14.57;;;5.68;;
41629;SDS011;27322;49.488;8.480;2024-01-30T14:32:51;13.73;;;6.30;;